createdAt,value
2024-05-09T00:00:26.482Z,3.95
2024-05-09T00:02:34.527Z,4.68
2024-05-09T00:04:40.529Z,4.15
2024-05-09T00:06:43.687Z,4.35
2024-05-09T00:08:46.979Z,4.50
2024-05-09T00:10:50.206Z,4.20
2024-05-09T00:12:53.409Z,4.30
2024-05-09T00:14:56.469Z,3.97
2024-05-09T00:16:59.692Z,4.85
2024-05-09T00:19:03.129Z,4.30
2024-05-09T00:21:10.175Z,4.15
2024-05-09T00:23:16.124Z,4.30
2024-05-09T00:25:19.424Z,4.65
2024-05-09T00:27:23.035Z,4.90
2024-05-09T00:29:26.551Z,4.38
2024-05-09T00:31:29.759Z,4.60
2024-05-09T00:33:33.066Z,4.18
2024-05-09T00:35:36.473Z,4.43
2024-05-09T00:37:42.735Z,4.57
2024-05-09T00:39:45.770Z,4.63
2024-05-09T00:41:48.980Z,3.70
2024-05-09T00:43:52.132Z,4.90
2024-05-09T00:45:57.254Z,4.72
2024-05-09T00:48:05.308Z,4.25
2024-05-09T00:50:15.469Z,4.75
2024-05-09T00:52:22.369Z,4.85
2024-05-09T00:54:29.070Z,4.95
2024-05-09T00:56:35.569Z,5.03
2024-05-09T00:58:39.367Z,5.35
2024-05-09T01:00:42.947Z,4.80
2024-05-09T01:02:46.468Z,5.45
2024-05-09T01:04:50.680Z,4.78
2024-05-09T01:06:53.851Z,5.30
2024-05-09T01:08:57.134Z,5.15
2024-05-09T01:11:03.111Z,5.13
2024-05-09T01:13:07.378Z,5.00
2024-05-09T01:15:10.861Z,5.27
2024-05-09T01:17:14.624Z,5.30
2024-05-09T01:19:23.739Z,4.93
2024-05-09T01:21:27.051Z,5.40
2024-05-09T01:23:33.120Z,5.57
2024-05-09T01:25:36.395Z,5.32
2024-05-09T01:27:39.890Z,4.68
2024-05-09T01:29:42.996Z,5.35
2024-05-09T01:31:47.296Z,5.75
2024-05-09T01:33:50.478Z,5.00
2024-05-09T01:35:53.704Z,5.03
2024-05-09T01:37:56.813Z,5.30
2024-05-09T01:40:03.540Z,5.28
2024-05-09T01:42:07.001Z,5.75
2024-05-09T01:44:10.449Z,5.80
2024-05-09T01:46:15.613Z,5.68
2024-05-09T01:48:18.855Z,5.45
2024-05-09T01:50:33.227Z,5.35
2024-05-09T01:52:41.166Z,5.82
2024-05-09T01:54:44.347Z,5.82
2024-05-09T01:56:50.289Z,4.75
2024-05-09T01:58:53.531Z,5.15
2024-05-09T02:00:57.428Z,5.40
2024-05-09T02:03:00.847Z,5.43
2024-05-09T02:05:04.956Z,5.35
2024-05-09T02:07:08.570Z,4.63
2024-05-09T02:09:12.041Z,5.10
2024-05-09T02:11:15.219Z,4.80
2024-05-09T02:13:21.172Z,4.65
2024-05-09T02:15:24.271Z,5.13
2024-05-09T02:17:27.661Z,5.28
2024-05-09T02:19:31.281Z,4.95
2024-05-09T02:21:34.819Z,4.70
2024-05-09T02:23:38.004Z,5.15
2024-05-09T02:25:42.074Z,4.80
2024-05-09T02:27:45.219Z,5.15
2024-05-09T02:29:51.150Z,4.93
2024-05-09T02:31:54.355Z,4.70
2024-05-09T02:33:57.728Z,4.95
2024-05-09T02:36:01.039Z,5.53
2024-05-09T02:38:04.694Z,4.50
2024-05-09T02:40:14.258Z,4.85
2024-05-09T02:42:17.973Z,4.70
2024-05-09T02:44:21.738Z,5.07
2024-05-09T02:46:27.652Z,4.55
2024-05-09T02:48:30.887Z,4.82
2024-05-09T02:50:38.691Z,4.95
2024-05-09T02:52:43.205Z,4.80
2024-05-09T02:54:46.458Z,4.47
2024-05-09T02:56:49.680Z,4.32
2024-05-09T02:58:52.983Z,4.55
2024-05-09T03:00:56.225Z,5.07
2024-05-09T03:03:02.509Z,5.05
2024-05-09T03:05:06.545Z,4.43
2024-05-09T03:07:09.748Z,4.85
2024-05-09T03:09:12.850Z,4.38
2024-05-09T03:11:23.389Z,4.28
2024-05-09T03:13:26.663Z,4.60
2024-05-09T03:15:32.918Z,4.70
2024-05-09T03:17:36.411Z,4.90
2024-05-09T03:19:42.547Z,4.55
2024-05-09T03:21:45.730Z,4.75
2024-05-09T03:23:49.211Z,4.30
2024-05-09T03:25:54.481Z,4.50
2024-05-09T03:27:57.813Z,4.60
2024-05-09T03:30:00.833Z,4.35
2024-05-09T03:32:04.556Z,4.18
2024-05-09T03:34:07.923Z,4.28
2024-05-09T03:36:13.839Z,4.35
2024-05-09T03:38:17.256Z,4.65
2024-05-09T03:40:23.891Z,4.40
2024-05-09T03:42:29.783Z,5.10
2024-05-09T03:44:32.976Z,4.47
2024-05-09T03:46:38.782Z,4.53
2024-05-09T03:48:42.080Z,4.78
2024-05-09T03:50:45.355Z,4.35
2024-05-09T03:52:51.507Z,5.53
2024-05-09T03:54:54.973Z,5.30
2024-05-09T03:56:58.149Z,5.43
2024-05-09T03:59:01.337Z,5.25
2024-05-09T04:01:05.044Z,5.75
2024-05-09T04:03:11.203Z,5.10
2024-05-09T04:05:16.051Z,5.38
2024-05-09T04:07:19.239Z,5.47
2024-05-09T04:09:25.099Z,5.63
2024-05-09T04:11:28.225Z,5.60
2024-05-09T04:13:31.439Z,6.22
2024-05-09T04:15:34.619Z,5.72
2024-05-09T04:17:38.077Z,5.65
2024-05-09T04:19:41.454Z,5.68
2024-05-09T04:21:44.727Z,5.25
2024-05-09T04:23:48.127Z,5.60
2024-05-09T04:25:54.130Z,5.55
2024-05-09T04:27:57.548Z,5.78
2024-05-09T04:30:00.768Z,5.68
2024-05-09T04:32:05.002Z,6.07
2024-05-09T04:34:08.452Z,5.50
2024-05-09T04:36:11.685Z,5.25
2024-05-09T04:38:15.565Z,5.70
2024-05-09T04:40:27.818Z,5.45
2024-05-09T04:42:41.055Z,5.63
2024-05-09T04:44:44.547Z,5.78
2024-05-09T04:46:48.001Z,5.57
2024-05-09T04:48:51.345Z,6.13
2024-05-09T04:50:54.950Z,5.85
2024-05-09T04:52:58.130Z,5.72
2024-05-09T04:55:01.282Z,6.75
2024-05-09T04:57:04.649Z,6.15
2024-05-09T04:59:10.678Z,5.75
2024-05-09T05:01:15.354Z,6.50
2024-05-09T05:03:19.199Z,6.07
2024-05-09T05:05:22.524Z,6.28
2024-05-09T05:07:25.736Z,6.53
2024-05-09T05:09:28.818Z,6.28
2024-05-09T05:11:32.435Z,6.00
2024-05-09T05:13:38.647Z,5.70
2024-05-09T05:15:46.872Z,6.20
2024-05-09T05:17:50.273Z,5.57
2024-05-09T05:19:54.576Z,5.57
2024-05-09T05:21:57.839Z,5.70
2024-05-09T05:24:01.030Z,5.50
2024-05-09T05:26:05.620Z,6.45
2024-05-09T05:28:09.166Z,5.97
2024-05-09T05:30:17.941Z,6.43
2024-05-09T05:32:30.722Z,6.82
2024-05-09T05:34:34.110Z,6.72
2024-05-09T05:36:37.315Z,5.88
2024-05-09T05:38:40.603Z,5.93
2024-05-09T05:40:44.125Z,6.50
2024-05-09T05:42:47.231Z,5.97
2024-05-09T05:44:50.810Z,6.15
2024-05-09T05:46:53.985Z,6.85
2024-05-09T05:49:00.168Z,6.75
2024-05-09T05:51:06.328Z,6.60
2024-05-09T05:53:10.855Z,5.97
2024-05-09T05:55:14.235Z,5.87
2024-05-09T05:57:17.511Z,6.75
2024-05-09T05:59:20.741Z,6.65
2024-05-09T06:01:23.963Z,6.32
2024-05-09T06:03:28.866Z,7.45
2024-05-09T06:05:36.746Z,6.88
2024-05-09T06:07:39.899Z,6.60
2024-05-09T06:09:44.262Z,6.45
2024-05-09T06:11:48.570Z,7.57
2024-05-09T06:13:52.214Z,7.22
2024-05-09T06:15:56.032Z,7.10
2024-05-09T06:17:59.456Z,7.18
2024-05-09T06:20:03.009Z,6.45
2024-05-09T06:22:10.069Z,6.95
2024-05-09T06:24:13.645Z,6.75
2024-05-09T06:26:16.983Z,6.90
2024-05-09T06:28:20.102Z,6.32
2024-05-09T06:30:30.359Z,6.50
2024-05-09T06:32:43.735Z,6.88
2024-05-09T06:34:47.956Z,6.72
2024-05-09T06:36:51.487Z,6.23
2024-05-09T06:38:57.442Z,6.97
2024-05-09T06:41:00.623Z,6.03
2024-05-09T06:43:04.067Z,6.75
2024-05-09T06:45:07.589Z,6.15
2024-05-09T06:47:11.184Z,6.68
2024-05-09T06:49:14.881Z,7.45
2024-05-09T06:51:18.376Z,7.43
2024-05-09T06:53:23.955Z,7.72
2024-05-09T06:57:32.634Z,7.70
2024-05-09T06:59:36.120Z,7.13
2024-05-09T07:01:39.434Z,7.85
2024-05-09T07:03:42.893Z,7.40
2024-05-09T07:05:48.039Z,7.45
2024-05-09T07:07:52.450Z,7.50
2024-05-09T07:09:55.821Z,7.07
2024-05-09T07:12:01.887Z,8.00
2024-05-09T07:14:05.076Z,6.50
2024-05-09T07:16:08.311Z,7.72
2024-05-09T07:18:12.860Z,7.57
2024-05-09T07:20:23.585Z,6.63
2024-05-09T07:22:35.224Z,8.27
2024-05-09T07:24:38.368Z,6.90
2024-05-09T07:26:41.510Z,6.85
2024-05-09T07:28:47.614Z,6.18
2024-05-09T07:30:50.730Z,6.38
2024-05-09T07:32:54.276Z,6.68
2024-05-09T07:35:01.623Z,7.20
2024-05-09T07:37:13.072Z,6.75
2024-05-09T07:39:17.868Z,7.25
2024-05-09T07:41:25.821Z,7.07
2024-05-09T07:43:33.555Z,5.68
2024-05-09T07:45:52.415Z,7.15
2024-05-09T07:53:32.748Z,6.18
2024-05-09T07:54:59.840Z,7.43
2024-05-09T07:57:07.166Z,6.35
2024-05-09T07:59:13.232Z,6.60
2024-05-09T08:01:20.883Z,6.35
2024-05-09T08:03:25.491Z,6.70
2024-05-09T08:05:28.928Z,5.95
2024-05-09T08:07:35.131Z,6.90
2024-05-09T08:09:40.138Z,7.40
2024-05-09T08:11:43.595Z,4.55
2024-05-09T08:13:46.845Z,5.90
2024-05-09T08:15:50.094Z,6.13
2024-05-09T08:17:56.761Z,6.00
2024-05-09T08:20:01.014Z,5.65
2024-05-09T08:22:07.422Z,5.57
2024-05-09T08:24:10.936Z,5.53
2024-05-09T08:26:14.734Z,5.50
2024-05-09T08:28:18.094Z,5.88
2024-05-09T08:30:29.068Z,6.50
2024-05-09T08:32:39.002Z,5.72
2024-05-09T08:34:45.382Z,5.90
2024-05-09T08:36:48.760Z,5.25
2024-05-09T08:38:51.903Z,5.43
2024-05-09T08:40:55.325Z,6.35
2024-05-09T08:43:00.991Z,6.00
2024-05-09T08:45:05.078Z,6.00
2024-05-09T08:47:10.468Z,6.15
2024-05-09T08:51:21.557Z,5.70
2024-05-09T08:53:24.931Z,6.03
2024-05-09T08:55:28.287Z,5.25
2024-05-09T08:57:32.657Z,4.72
2024-05-09T08:59:39.689Z,5.47
2024-05-09T09:01:44.555Z,4.72
2024-05-09T09:03:49.516Z,4.55
2024-05-09T09:05:59.420Z,5.97
2024-05-09T09:08:08.794Z,5.80
2024-05-09T09:10:17.830Z,4.05
2024-05-09T09:12:28.368Z,5.25
2024-05-09T09:14:31.640Z,5.40
2024-05-09T09:16:35.277Z,5.93
2024-05-09T09:18:38.915Z,4.80
2024-05-09T09:20:42.579Z,5.55
2024-05-09T09:22:45.991Z,5.20
2024-05-09T09:24:51.931Z,4.90
2024-05-09T09:26:57.483Z,5.00
2024-05-09T09:29:02.375Z,4.90
2024-05-09T09:31:05.949Z,6.00
2024-05-09T09:33:10.761Z,4.72
2024-05-09T09:35:14.231Z,4.35
2024-05-09T09:37:23.781Z,4.20
2024-05-09T09:39:29.694Z,4.82
2024-05-09T09:41:37.443Z,4.97
2024-05-09T09:43:41.576Z,5.47
2024-05-09T09:45:45.662Z,5.45
2024-05-09T09:47:50.130Z,4.85
2024-05-09T09:49:54.535Z,5.00
2024-05-09T09:51:57.960Z,6.10
2024-05-09T09:54:04.361Z,5.03
2024-05-09T09:56:10.652Z,5.07
2024-05-09T09:58:18.046Z,3.80
2024-05-09T10:00:30.001Z,5.43
2024-05-09T10:02:35.860Z,5.32
2024-05-09T10:04:39.437Z,5.18
2024-05-09T10:06:44.845Z,4.25
2024-05-09T10:10:52.395Z,5.15
2024-05-09T10:13:00.487Z,5.25
2024-05-09T10:15:10.326Z,5.03
2024-05-09T10:17:13.609Z,5.18
2024-05-09T10:19:27.267Z,5.63
2024-05-09T10:21:30.687Z,4.60
2024-05-09T10:23:34.859Z,4.82
2024-05-09T10:25:39.388Z,5.53
2024-05-09T10:27:42.978Z,5.60
2024-05-09T10:29:53.514Z,6.15
2024-05-09T10:32:00.685Z,5.45
2024-05-09T10:34:06.726Z,5.30
2024-05-09T10:36:13.431Z,5.05
2024-05-09T10:38:16.689Z,3.88
2024-05-09T10:40:26.419Z,4.82
2024-05-09T10:42:34.625Z,4.82
2024-05-09T10:44:38.800Z,5.63
2024-05-09T10:46:42.705Z,5.22
2024-05-09T10:48:49.054Z,5.07
2024-05-09T10:50:52.632Z,4.55
2024-05-09T10:52:55.891Z,5.28
2024-05-09T10:55:00.396Z,4.15
2024-05-09T10:57:04.685Z,5.18
2024-05-09T10:59:08.054Z,4.53
2024-05-09T11:01:11.816Z,5.35
2024-05-09T11:03:16.812Z,4.65
2024-05-09T11:05:23.191Z,4.53
2024-05-09T11:07:28.118Z,5.07
2024-05-09T11:09:32.481Z,4.63
2024-05-09T11:11:36.594Z,4.80
2024-05-09T11:13:40.940Z,4.60
2024-05-09T11:15:44.545Z,4.88
2024-05-09T11:17:47.856Z,5.22
2024-05-09T11:19:51.492Z,3.63
2024-05-09T11:21:57.686Z,5.13
2024-05-09T11:24:01.318Z,4.75
2024-05-09T11:26:05.058Z,4.90
2024-05-09T11:28:08.466Z,4.57
2024-05-09T11:30:26.719Z,5.28
2024-05-09T11:32:38.443Z,4.53
2024-05-09T11:34:42.531Z,4.70
2024-05-09T11:36:45.916Z,4.75
2024-05-09T11:38:51.756Z,3.72
2024-05-09T11:40:55.179Z,5.05
2024-05-09T11:42:58.683Z,4.03
2024-05-09T11:45:01.865Z,4.97
2024-05-09T11:47:05.714Z,4.75
2024-05-09T11:49:10.061Z,4.80
2024-05-09T11:51:13.202Z,3.40
2024-05-09T11:53:16.455Z,4.55
2024-05-09T11:55:27.410Z,4.05
2024-05-09T11:57:31.691Z,4.28
2024-05-09T11:59:34.845Z,4.90
2024-05-09T12:01:38.349Z,4.63
2024-05-09T12:03:41.523Z,4.00
2024-05-09T12:05:45.519Z,3.70
2024-05-09T12:07:49.074Z,3.65
2024-05-09T12:09:52.242Z,4.60
2024-05-09T12:11:58.181Z,4.00
2024-05-09T12:14:01.430Z,3.65
2024-05-09T12:16:04.839Z,4.38
2024-05-09T12:18:08.589Z,3.40
2024-05-09T12:20:21.081Z,4.28
2024-05-09T12:22:29.026Z,4.20
2024-05-09T12:24:32.275Z,3.70
2024-05-09T12:26:35.729Z,4.35
2024-05-09T12:28:41.694Z,5.35
2024-05-09T12:30:44.952Z,4.00
2024-05-09T12:32:50.002Z,4.50
2024-05-09T12:34:53.338Z,3.42
2024-05-09T12:36:56.615Z,3.33
2024-05-09T12:39:00.005Z,3.95
2024-05-09T12:41:03.134Z,4.07
2024-05-09T12:43:08.602Z,3.45
2024-05-09T12:45:15.899Z,3.45
2024-05-09T12:47:19.667Z,4.15
2024-05-09T12:49:24.888Z,4.13
2024-05-09T12:51:28.300Z,3.28
2024-05-09T12:53:31.495Z,4.53
2024-05-09T12:55:43.813Z,3.45
2024-05-09T12:57:51.937Z,3.67
2024-05-09T12:59:55.836Z,3.53
2024-05-09T13:02:01.788Z,3.38
2024-05-09T13:04:05.504Z,3.60
2024-05-09T13:06:09.232Z,4.18
2024-05-09T13:08:13.550Z,3.90
2024-05-09T13:10:25.523Z,2.80
2024-05-09T13:12:35.040Z,3.60
2024-05-09T13:14:38.476Z,2.17
2024-05-09T13:16:41.772Z,2.92
2024-05-09T13:18:47.867Z,3.92
2024-05-09T13:20:51.175Z,3.88
2024-05-09T13:22:54.273Z,3.25
2024-05-09T13:24:57.726Z,2.58
2024-05-09T13:27:00.889Z,3.03
2024-05-09T13:29:04.146Z,3.10
2024-05-09T13:31:07.325Z,3.58
2024-05-09T13:33:12.128Z,3.30
2024-05-09T13:35:19.107Z,3.33
2024-05-09T13:37:22.785Z,3.60
2024-05-09T13:39:25.902Z,3.63
2024-05-09T13:41:29.131Z,3.45
2024-05-09T13:43:32.668Z,3.38
2024-05-09T13:45:36.142Z,3.08
2024-05-09T13:47:39.740Z,3.63
2024-05-09T13:49:43.745Z,3.45
2024-05-09T13:51:49.869Z,3.22
2024-05-09T13:53:53.441Z,3.58
2024-05-09T13:55:56.744Z,3.47
2024-05-09T13:58:00.414Z,3.60
2024-05-09T14:00:06.894Z,3.28
2024-05-09T14:02:14.897Z,3.53
2024-05-09T14:04:18.496Z,3.80
2024-05-09T14:06:22.297Z,3.45
2024-05-09T14:08:28.459Z,3.78
2024-05-09T14:10:32.542Z,2.92
2024-05-09T14:12:36.228Z,3.28
2024-05-09T14:14:39.454Z,1.98
2024-05-09T14:16:43.584Z,2.85
2024-05-09T14:18:46.934Z,3.20
2024-05-09T14:20:50.110Z,3.00
2024-05-09T14:22:53.387Z,2.65
2024-05-09T14:24:59.344Z,2.42
2024-05-09T14:27:02.705Z,3.50
2024-05-09T14:29:05.972Z,2.55
2024-05-09T14:31:09.294Z,2.60
2024-05-09T14:33:12.934Z,3.10
2024-05-09T14:35:16.440Z,2.78
2024-05-09T14:37:19.606Z,2.70
2024-05-09T14:39:22.927Z,2.83
2024-05-09T14:41:28.792Z,3.10
2024-05-09T14:43:32.885Z,3.00
2024-05-09T14:45:36.379Z,3.60
2024-05-09T14:47:39.773Z,3.00
2024-05-09T14:49:42.939Z,3.42
2024-05-09T14:51:48.253Z,3.70
2024-05-09T14:53:51.445Z,3.17
2024-05-09T14:55:54.833Z,4.28
2024-05-09T14:58:00.876Z,3.50
2024-05-09T15:00:06.912Z,3.20
2024-05-09T15:02:12.282Z,2.97
2024-05-09T15:04:15.780Z,3.17
2024-05-09T15:06:19.365Z,3.00
2024-05-09T15:08:22.612Z,3.60
2024-05-09T15:10:33.812Z,1.95
2024-05-09T15:12:39.338Z,3.60
2024-05-09T15:14:45.299Z,3.50
2024-05-09T15:16:49.055Z,3.78
2024-05-09T15:18:52.562Z,3.70
2024-05-09T15:20:56.194Z,3.00
2024-05-09T15:22:59.548Z,1.30
2024-05-09T15:25:02.888Z,2.63
2024-05-09T15:27:06.283Z,3.17
2024-05-09T15:29:09.604Z,3.08
2024-05-09T15:31:15.486Z,2.97
2024-05-09T15:33:19.032Z,2.78
2024-05-09T15:35:22.265Z,2.72
2024-05-09T15:37:25.754Z,3.15
2024-05-09T15:39:30.730Z,3.10
2024-05-09T15:41:33.968Z,2.95
2024-05-09T15:43:37.360Z,3.28
2024-05-09T15:45:41.639Z,2.92
2024-05-09T15:47:48.256Z,3.13
2024-05-09T15:49:52.359Z,2.90
2024-05-09T15:51:55.524Z,3.47
2024-05-09T15:53:59.299Z,4.65
2024-05-09T15:56:02.497Z,3.25
2024-05-09T15:58:06.996Z,2.95
2024-05-09T16:00:21.470Z,2.63
2024-05-09T16:02:28.444Z,3.13
2024-05-09T16:04:34.534Z,3.25
2024-05-09T16:06:38.068Z,3.03
2024-05-09T16:08:41.363Z,2.60
2024-05-09T16:10:48.331Z,2.72
2024-05-09T16:12:51.726Z,2.85
2024-05-09T16:14:55.069Z,2.63
2024-05-09T16:16:58.293Z,2.83
2024-05-09T16:19:02.064Z,2.83
2024-05-09T16:21:08.775Z,2.97
2024-05-09T16:23:13.025Z,2.80
2024-05-09T16:25:17.335Z,3.27
2024-05-09T16:27:22.498Z,2.92
2024-05-09T16:29:25.729Z,2.83
2024-05-09T16:31:29.504Z,2.97
2024-05-09T16:33:32.897Z,2.55
2024-05-09T16:35:36.543Z,2.90
2024-05-09T16:37:42.598Z,3.10
2024-05-09T16:39:45.902Z,3.22
2024-05-09T16:41:49.135Z,3.05
2024-05-09T16:43:52.520Z,3.03
2024-05-09T16:45:55.702Z,2.58
2024-05-09T16:48:00.516Z,3.13
2024-05-09T16:50:05.309Z,3.00
2024-05-09T16:52:09.985Z,3.13
2024-05-09T16:54:15.920Z,3.13
2024-05-09T16:56:19.424Z,2.80
2024-05-09T16:58:22.650Z,2.97
2024-05-09T17:00:35.905Z,2.70
2024-05-09T17:02:44.645Z,3.22
2024-05-09T17:04:48.458Z,2.78
2024-05-09T17:06:51.669Z,2.53
2024-05-09T17:08:55.599Z,2.90
2024-05-09T17:11:05.286Z,2.53
2024-05-09T17:13:08.712Z,3.05
2024-05-09T17:15:12.505Z,2.90
2024-05-09T17:17:15.805Z,3.10
2024-05-09T17:19:19.300Z,3.13
2024-05-09T17:21:22.667Z,2.92
2024-05-09T17:23:25.923Z,2.85
2024-05-09T17:25:29.574Z,2.72
2024-05-09T17:27:35.883Z,3.20
2024-05-09T17:29:39.554Z,3.03
2024-05-09T17:31:43.115Z,2.97
2024-05-09T17:33:46.583Z,3.00
2024-05-09T17:35:51.734Z,2.80
2024-05-09T17:37:55.144Z,3.15
2024-05-09T17:39:58.489Z,2.78
2024-05-09T17:42:01.899Z,3.10
2024-05-09T17:44:07.684Z,2.78
2024-05-09T17:46:11.236Z,2.90
2024-05-09T17:48:14.710Z,2.60
2024-05-09T17:50:24.592Z,2.63
2024-05-09T17:54:37.166Z,2.60
2024-05-09T17:56:40.384Z,3.42
2024-05-09T17:58:43.634Z,3.17
2024-05-09T18:00:49.779Z,3.33
2024-05-09T18:02:53.142Z,3.13
2024-05-09T18:04:56.381Z,3.50
2024-05-09T18:07:00.060Z,3.10
2024-05-09T18:09:03.384Z,3.45
2024-05-09T18:11:06.874Z,3.53
2024-05-09T18:13:10.949Z,3.58
2024-05-09T18:15:14.664Z,3.80
2024-05-09T18:17:23.581Z,4.05
2024-05-09T18:19:28.879Z,4.85
2024-05-09T18:21:32.247Z,4.55
2024-05-09T18:23:35.595Z,4.50
2024-05-09T18:25:38.861Z,3.35
2024-05-09T18:27:42.501Z,3.60
2024-05-09T18:29:45.664Z,3.50
2024-05-09T18:31:48.940Z,4.00
2024-05-09T18:33:55.139Z,3.88
2024-05-09T18:35:58.687Z,3.60
2024-05-09T18:38:02.042Z,3.70
2024-05-09T18:40:11.737Z,3.42
2024-05-09T18:42:15.085Z,3.50
2024-05-09T18:44:18.886Z,3.53
2024-05-09T18:46:22.463Z,3.17
2024-05-09T18:48:25.893Z,3.78
2024-05-09T18:50:36.070Z,3.17
2024-05-09T18:52:42.277Z,3.45
2024-05-09T18:54:45.470Z,3.33
2024-05-09T18:56:48.764Z,3.78
2024-05-09T18:58:52.851Z,3.78
2024-05-09T19:00:58.402Z,3.75
2024-05-09T19:03:07.255Z,3.90
2024-05-09T19:05:18.276Z,3.50
2024-05-09T19:07:26.329Z,3.17
2024-05-09T19:09:30.110Z,3.10
2024-05-09T19:11:35.899Z,3.38
2024-05-09T19:13:44.061Z,3.17
2024-05-09T19:15:49.138Z,3.33
2024-05-09T19:17:54.938Z,3.85
2024-05-09T19:19:58.391Z,4.00
2024-05-09T19:22:06.071Z,3.35
2024-05-09T19:24:19.524Z,3.38
2024-05-09T19:26:30.054Z,2.90
2024-05-09T19:28:40.791Z,3.10
2024-05-09T19:30:50.571Z,3.42
2024-05-09T19:32:59.048Z,3.20
2024-05-09T19:35:08.802Z,3.08
2024-05-09T19:37:18.227Z,2.90
2024-05-09T19:39:31.279Z,3.42
2024-05-09T19:41:40.116Z,2.85
2024-05-09T19:43:49.850Z,3.05
2024-05-09T19:45:59.890Z,3.22
2024-05-09T19:48:06.938Z,3.47
2024-05-09T19:50:16.302Z,3.00
2024-05-09T19:52:26.557Z,2.80
2024-05-09T19:54:32.670Z,2.80
2024-05-09T19:56:35.989Z,3.38
2024-05-09T19:58:39.214Z,3.10
2024-05-09T20:00:44.052Z,2.97
2024-05-09T20:04:51.797Z,2.97
2024-05-09T20:06:55.312Z,3.33
2024-05-09T20:08:59.975Z,3.10
2024-05-09T20:11:06.290Z,3.05
2024-05-09T20:13:09.721Z,2.97
2024-05-09T20:15:17.780Z,3.45
2024-05-09T20:17:23.053Z,3.35
2024-05-09T20:19:30.937Z,3.42
2024-05-09T20:21:46.104Z,4.22
2024-05-09T20:23:51.203Z,4.65
2024-05-09T20:25:54.315Z,5.05
2024-05-09T20:28:00.317Z,5.07
2024-05-09T20:30:08.061Z,5.75
2024-05-09T20:32:15.318Z,6.00
2024-05-09T20:34:18.524Z,5.25
2024-05-09T20:36:22.036Z,6.25
2024-05-09T20:38:25.247Z,5.57
2024-05-09T20:40:32.907Z,6.80
2024-05-09T20:42:39.998Z,7.28
2024-05-09T20:44:45.846Z,7.25
2024-05-09T20:46:49.198Z,5.57
2024-05-09T20:48:52.444Z,4.57
2024-05-09T20:50:55.828Z,5.45
2024-05-09T20:52:58.985Z,5.15
2024-05-09T20:55:02.287Z,5.18
2024-05-09T20:57:06.826Z,4.63
2024-05-09T20:59:10.115Z,4.67
2024-05-09T21:01:16.085Z,4.18
2024-05-09T21:03:20.054Z,4.28
2024-05-09T21:05:23.277Z,4.63
2024-05-09T21:07:26.684Z,4.28
2024-05-09T21:09:29.755Z,4.32
2024-05-09T21:11:33.293Z,4.53
2024-05-09T21:13:36.630Z,4.78
2024-05-09T21:15:39.931Z,4.63
2024-05-09T21:17:46.013Z,4.22
2024-05-09T21:19:49.703Z,4.68
2024-05-09T21:21:53.475Z,4.20
2024-05-09T21:23:56.836Z,4.00
2024-05-09T21:26:00.052Z,3.67
2024-05-09T21:28:04.399Z,4.32
2024-05-09T21:30:13.290Z,4.13
2024-05-09T21:32:22.101Z,3.90
2024-05-09T21:34:28.510Z,3.60
2024-05-09T21:36:31.903Z,3.90
2024-05-09T21:38:36.543Z,3.35
2024-05-09T21:40:39.985Z,3.40
2024-05-09T21:42:43.360Z,3.33
2024-05-09T21:44:46.586Z,3.67
2024-05-09T21:46:49.811Z,3.63
2024-05-09T21:48:53.646Z,3.60
2024-05-09T21:50:59.805Z,4.18
2024-05-09T21:53:03.356Z,3.70
2024-05-09T21:55:07.199Z,4.00
2024-05-09T21:57:11.410Z,3.55
2024-05-09T21:59:14.585Z,4.00
2024-05-09T22:01:17.882Z,4.32
2024-05-09T22:03:21.183Z,3.95
2024-05-09T22:05:24.846Z,4.15
2024-05-09T22:07:30.990Z,3.80
2024-05-09T22:09:34.302Z,3.70
2024-05-09T22:11:37.506Z,3.05
2024-05-09T22:13:40.981Z,3.40
2024-05-09T22:15:44.291Z,3.45
2024-05-09T22:17:47.805Z,4.25
2024-05-09T22:19:51.015Z,3.33
2024-05-09T22:21:55.663Z,3.65
2024-05-09T22:24:01.510Z,4.20
2024-05-09T22:26:04.971Z,4.07
2024-05-09T22:28:08.679Z,4.10
2024-05-09T22:30:20.872Z,3.92
2024-05-09T22:32:27.369Z,3.95
2024-05-09T22:34:30.573Z,4.05
2024-05-09T22:36:33.851Z,4.10
2024-05-09T22:38:37.092Z,3.90
2024-05-09T22:40:48.087Z,3.83
2024-05-09T22:42:53.173Z,4.03
2024-05-09T22:44:56.242Z,4.00
2024-05-09T22:46:59.587Z,4.07
2024-05-09T22:49:02.942Z,4.32
2024-05-09T22:51:06.433Z,4.15
2024-05-09T22:53:09.889Z,4.03
2024-05-09T22:55:13.184Z,4.20
2024-05-09T22:57:19.183Z,4.32
2024-05-09T22:59:22.430Z,4.15
2024-05-09T23:01:26.903Z,3.65
2024-05-09T23:03:30.480Z,4.10
2024-05-09T23:05:33.933Z,4.43
2024-05-09T23:07:37.165Z,4.53
2024-05-09T23:09:40.289Z,4.50
2024-05-09T23:11:45.410Z,4.15
2024-05-09T23:13:51.295Z,4.45
2024-05-09T23:15:54.479Z,4.43
2024-05-09T23:17:58.395Z,4.82
2024-05-09T23:20:03.843Z,4.32
2024-05-09T23:22:08.339Z,4.47
2024-05-09T23:24:11.535Z,4.72
2024-05-09T23:26:14.917Z,4.63
2024-05-09T23:28:18.185Z,4.97
2024-05-09T23:30:33.581Z,5.13
2024-05-09T23:32:41.222Z,5.35
2024-05-09T23:34:44.426Z,5.65
2024-05-09T23:36:47.907Z,5.55
2024-05-09T23:38:51.022Z,5.78
2024-05-09T23:40:54.382Z,5.55
2024-05-09T23:42:57.598Z,5.75
2024-05-09T23:45:00.703Z,5.35
2024-05-09T23:47:08.574Z,5.15
2024-05-09T23:49:13.805Z,6.07
2024-05-09T23:51:16.867Z,5.65
2024-05-09T23:53:20.071Z,5.68
2024-05-09T23:55:23.351Z,5.70
2024-05-09T23:57:26.545Z,5.28
2024-05-09T23:59:29.635Z,5.60
